createdAt,value
2023-02-14T00:01:40.336Z,17.10
2023-02-14T00:04:48.323Z,15.40
2023-02-14T00:07:54.600Z,16.10
2023-02-14T00:11:00.961Z,20.20
2023-02-14T00:14:25.549Z,20.30
2023-02-14T00:17:31.808Z,18.30
2023-02-14T00:20:38.036Z,17.20
2023-02-14T00:23:44.246Z,15.60
2023-02-14T00:26:51.246Z,15.80
2023-02-14T00:30:02.215Z,15.50
2023-02-14T00:33:08.476Z,16.70
2023-02-14T00:36:15.209Z,16.30
2023-02-14T00:39:22.447Z,19.50
2023-02-14T00:42:28.713Z,16.80
2023-02-14T00:45:35.108Z,18.10
2023-02-14T00:48:41.428Z,18.10
2023-02-14T00:51:47.714Z,18.70
2023-02-14T00:57:58.499Z,17.60
2023-02-14T01:01:04.897Z,14.80
2023-02-14T01:04:11.192Z,16.90
2023-02-14T01:07:17.438Z,18.50
2023-02-14T01:10:24.049Z,18.20
2023-02-14T01:13:30.317Z,17.40
2023-02-14T01:16:37.164Z,17.20
2023-02-14T01:19:43.447Z,17.70
2023-02-14T01:22:49.694Z,18.20
2023-02-14T01:29:00.410Z,17.70
2023-02-14T01:32:06.918Z,17.10
2023-02-14T01:35:13.898Z,16.10
2023-02-14T01:38:20.065Z,16.90
2023-02-14T01:41:27.798Z,17.40
2023-02-14T01:45:00.110Z,17.20
2023-02-14T01:48:06.593Z,19.00
2023-02-14T01:54:18.453Z,19.60
2023-02-14T01:57:30.261Z,21.30
2023-02-14T02:00:54.540Z,20.20
2023-02-14T02:04:04.620Z,21.60
2023-02-14T02:07:16.116Z,19.40
2023-02-14T02:10:22.588Z,20.60
2023-02-14T02:13:28.755Z,17.50
2023-02-14T02:16:48.344Z,17.60
2023-02-14T02:20:48.510Z,18.40
2023-02-14T02:24:31.519Z,17.60
2023-02-14T02:28:04.626Z,18.20
2023-02-14T02:31:32.750Z,17.60
2023-02-14T02:35:17.242Z,17.10
2023-02-14T02:38:41.907Z,18.20
2023-02-14T02:41:57.100Z,17.10
2023-02-14T02:45:13.263Z,17.80
2023-02-14T02:48:24.256Z,17.40
2023-02-14T02:51:57.619Z,17.30
2023-02-14T02:55:09.168Z,17.10
2023-02-14T02:58:15.518Z,17.60
2023-02-14T03:04:47.189Z,18.00
2023-02-14T03:07:53.737Z,18.60
2023-02-14T03:11:01.156Z,17.80
2023-02-14T03:14:21.110Z,18.50
2023-02-14T03:17:36.797Z,18.30
2023-02-14T03:20:51.156Z,21.30
2023-02-14T03:24:05.650Z,19.80
2023-02-14T03:27:21.823Z,18.50
2023-02-14T03:33:48.042Z,20.30
2023-02-14T03:37:01.917Z,20.00
2023-02-14T03:40:15.443Z,18.30
2023-02-14T03:43:25.970Z,18.20
2023-02-14T03:46:36.813Z,19.00
2023-02-14T03:49:48.265Z,18.30
2023-02-14T03:52:55.721Z,17.70
2023-02-14T03:56:09.907Z,16.90
2023-02-14T03:59:18.579Z,17.10
2023-02-14T04:02:31.706Z,17.10
2023-02-14T04:05:38.617Z,18.40
2023-02-14T04:08:44.865Z,17.90
2023-02-14T04:11:51.564Z,16.80
2023-02-14T04:14:57.868Z,17.20
2023-02-14T04:21:25.882Z,18.40
2023-02-14T04:27:36.820Z,18.10
2023-02-14T04:30:43.176Z,19.20
2023-02-14T04:36:54.843Z,20.30
2023-02-14T04:40:01.085Z,19.30
2023-02-14T04:43:08.243Z,19.90
2023-02-14T04:46:14.776Z,20.70
2023-02-14T04:49:21.207Z,19.80
2023-02-14T04:55:32.251Z,20.10
2023-02-14T04:58:38.594Z,19.30
2023-02-14T05:04:49.982Z,19.80
2023-02-14T05:07:56.299Z,19.00
2023-02-14T05:14:10.103Z,19.80
2023-02-14T05:17:16.405Z,19.30
2023-02-14T05:23:27.236Z,20.50
2023-02-14T05:26:33.973Z,19.30
2023-02-14T05:29:40.246Z,18.60
2023-02-14T05:35:51.109Z,19.50
2023-02-14T05:42:02.050Z,18.40
2023-02-14T05:48:13.483Z,19.60
2023-02-14T05:51:19.780Z,18.10
2023-02-14T05:57:30.697Z,18.30
2023-02-14T06:00:38.413Z,17.80
2023-02-14T06:03:46.240Z,18.30
2023-02-14T06:09:57.109Z,17.00
2023-02-14T06:16:08.905Z,16.40
2023-02-14T06:19:15.018Z,16.10
2023-02-14T06:22:21.578Z,17.60
2023-02-14T06:25:28.211Z,16.80
2023-02-14T06:28:34.485Z,16.60
2023-02-14T06:31:40.837Z,15.60
2023-02-14T06:34:47.191Z,14.80
2023-02-14T06:37:53.585Z,16.60
2023-02-14T06:41:06.329Z,16.20
2023-02-14T06:44:12.791Z,15.90
2023-02-14T06:50:23.595Z,15.00
2023-02-14T06:56:34.642Z,14.10
2023-02-14T06:59:40.905Z,13.60
2023-02-14T07:02:47.483Z,14.20
2023-02-14T07:05:54.757Z,13.20
2023-02-14T07:09:01.076Z,14.20
2023-02-14T07:15:14.978Z,13.40
2023-02-14T07:18:21.243Z,13.20
2023-02-14T07:21:27.461Z,13.20
2023-02-14T07:24:33.731Z,14.10
2023-02-14T07:27:40.732Z,13.70
2023-02-14T07:30:46.952Z,14.00
2023-02-14T07:36:57.809Z,14.50
2023-02-14T07:43:09.617Z,15.00
2023-02-14T07:46:17.551Z,15.80
2023-02-14T07:49:24.152Z,16.20
2023-02-14T07:52:30.471Z,15.70
2023-02-14T07:58:41.210Z,16.40
2023-02-14T08:01:47.759Z,16.40
2023-02-14T08:04:54.046Z,17.00
2023-02-14T08:11:05.154Z,17.50
2023-02-14T08:14:11.526Z,16.40
2023-02-14T08:20:22.406Z,17.60
2023-02-14T08:26:33.796Z,18.40
2023-02-14T08:29:40.121Z,18.80
2023-02-14T08:35:52.251Z,18.80
2023-02-14T08:38:58.708Z,19.00
2023-02-14T08:42:05.348Z,18.70
2023-02-14T08:45:12.738Z,18.50
2023-02-14T08:48:19.030Z,18.00
2023-02-14T08:54:30.317Z,19.10
2023-02-14T09:00:41.619Z,17.30
2023-02-14T09:03:48.039Z,17.30
2023-02-14T09:09:58.956Z,18.30
2023-02-14T09:16:11.999Z,18.00
2023-02-14T09:19:18.425Z,18.10
2023-02-14T09:25:29.214Z,17.00
2023-02-14T09:28:35.408Z,16.90
2023-02-14T09:35:04.270Z,17.20
2023-02-14T09:38:11.293Z,18.10
2023-02-14T09:41:50.681Z,16.90
2023-02-14T09:45:00.794Z,16.40
2023-02-14T09:48:13.874Z,16.90
2023-02-14T09:51:23.440Z,17.60
2023-02-14T09:54:31.641Z,17.60
2023-02-14T09:57:46.998Z,16.70
2023-02-14T10:01:00.874Z,16.60
2023-02-14T10:04:22.620Z,16.50
2023-02-14T10:07:34.979Z,17.40
2023-02-14T10:10:44.188Z,18.90
2023-02-14T10:13:54.737Z,18.10
2023-02-14T10:17:07.016Z,18.40
2023-02-14T10:20:22.141Z,16.60
2023-02-14T10:23:35.696Z,17.00
2023-02-14T10:26:42.980Z,15.90
2023-02-14T10:29:49.320Z,16.70
2023-02-14T10:36:12.264Z,16.70
2023-02-14T10:39:47.373Z,16.40
2023-02-14T10:43:00.005Z,16.30
2023-02-14T10:46:17.786Z,15.20
2023-02-14T10:49:41.719Z,15.30
2023-02-14T10:52:59.199Z,15.00
2023-02-14T10:56:09.997Z,15.00
2023-02-14T10:59:23.497Z,13.60
2023-02-14T11:02:41.624Z,14.90
2023-02-14T11:05:49.770Z,14.50
2023-02-14T11:08:57.363Z,13.60
2023-02-14T11:12:03.929Z,14.50
2023-02-14T11:15:21.583Z,13.70
2023-02-14T11:18:33.022Z,14.00
2023-02-14T11:21:42.555Z,13.70
2023-02-14T11:24:48.830Z,13.30
2023-02-14T11:31:03.565Z,13.40
2023-02-14T11:34:26.263Z,12.60
2023-02-14T11:37:37.581Z,13.40
2023-02-14T11:40:43.877Z,14.80
2023-02-14T11:46:57.253Z,10.40
2023-02-14T11:50:06.662Z,10.40
2023-02-14T11:53:14.399Z,10.90
2023-02-14T11:56:22.370Z,11.50
2023-02-14T11:59:37.556Z,10.80
2023-02-14T12:02:45.822Z,14.20
2023-02-14T12:05:57.379Z,47.90
2023-02-14T12:09:25.363Z,55.50
2023-02-14T12:12:31.681Z,33.30
2023-02-14T12:18:57.881Z,24.40
2023-02-14T12:22:07.362Z,26.80
2023-02-14T12:25:18.016Z,18.00
2023-02-14T12:28:30.931Z,15.60
2023-02-14T12:31:37.102Z,19.60
2023-02-14T12:38:04.629Z,12.50
2023-02-14T12:41:26.023Z,14.80
2023-02-14T12:44:45.079Z,14.00
2023-02-14T12:48:01.126Z,16.50
2023-02-14T12:51:13.154Z,15.70
2023-02-14T12:54:34.926Z,16.20
2023-02-14T12:57:51.059Z,18.20
2023-02-14T13:04:33.299Z,17.80
2023-02-14T13:08:06.093Z,17.00
2023-02-14T13:11:25.386Z,18.20
2023-02-14T13:14:51.980Z,18.40
2023-02-14T13:18:01.538Z,41.90
2023-02-14T13:21:11.785Z,23.90
2023-02-14T13:24:22.999Z,27.50
2023-02-14T13:27:32.934Z,20.60
2023-02-14T13:30:42.280Z,24.20
2023-02-14T13:33:53.291Z,23.10
2023-02-14T13:37:02.092Z,23.50
2023-02-14T13:40:19.536Z,25.80
2023-02-14T13:43:50.277Z,16.80
2023-02-14T13:46:56.603Z,23.80
2023-02-14T13:53:12.467Z,16.20
2023-02-14T13:56:44.552Z,18.60
2023-02-14T14:00:40.069Z,16.10
2023-02-14T14:04:00.967Z,20.30
2023-02-14T14:07:30.158Z,16.30
2023-02-14T14:10:47.536Z,17.20
2023-02-14T14:14:02.789Z,16.60
2023-02-14T14:17:28.728Z,15.90
2023-02-14T14:20:45.764Z,14.20
2023-02-14T14:24:08.741Z,13.80
2023-02-14T14:27:21.906Z,14.50
2023-02-14T14:30:32.202Z,14.60
2023-02-14T14:33:38.905Z,15.70
2023-02-14T14:36:45.182Z,15.80
2023-02-14T14:43:06.850Z,14.50
2023-02-14T14:46:15.884Z,13.70
2023-02-14T14:49:22.982Z,14.10
2023-02-14T14:52:35.267Z,13.80
2023-02-14T14:55:46.491Z,13.80
2023-02-14T14:58:53.013Z,14.20
2023-02-14T15:01:59.245Z,14.40
2023-02-14T15:05:24.485Z,13.40
2023-02-14T15:08:33.642Z,13.10
2023-02-14T15:11:58.353Z,13.00
2023-02-14T15:15:06.314Z,14.20
2023-02-14T15:18:15.854Z,14.30
2023-02-14T15:21:22.178Z,13.90
2023-02-14T15:27:34.917Z,15.40
2023-02-14T15:30:44.385Z,15.80
2023-02-14T15:33:51.062Z,15.90
2023-02-14T15:37:03.625Z,16.30
2023-02-14T15:40:18.048Z,15.40
2023-02-14T15:43:32.110Z,16.70
2023-02-14T15:46:41.641Z,17.40
2023-02-14T15:49:48.051Z,14.00
2023-02-14T15:56:08.057Z,15.50
2023-02-14T15:59:20.056Z,14.60
2023-02-14T16:02:36.113Z,14.60
2023-02-14T16:08:58.110Z,15.90
2023-02-14T16:12:23.552Z,16.30
2023-02-14T16:15:32.102Z,15.50
2023-02-14T16:18:40.758Z,24.10
2023-02-14T16:21:58.476Z,68.70
2023-02-14T16:25:04.892Z,35.10
2023-02-14T16:28:11.205Z,65.10
2023-02-14T16:37:30.679Z,26.30
2023-02-14T16:40:37.498Z,45.30
2023-02-14T16:43:43.735Z,23.50
2023-02-14T16:46:50.817Z,31.90
2023-02-14T16:49:57.167Z,25.80
2023-02-14T16:56:08.736Z,20.40
2023-02-14T16:59:14.998Z,26.80
2023-02-14T17:05:28.329Z,20.10
2023-02-14T17:08:35.362Z,18.70
2023-02-14T17:11:46.595Z,16.90
2023-02-14T17:14:55.742Z,24.00
2023-02-14T17:18:07.702Z,22.40
2023-02-14T17:21:14.038Z,17.70
2023-02-14T17:27:24.918Z,19.40
2023-02-14T17:30:31.139Z,20.50
2023-02-14T17:36:42.423Z,18.30
2023-02-14T17:39:48.648Z,20.20
2023-02-14T17:45:59.170Z,18.00
2023-02-14T17:49:05.286Z,17.70
2023-02-14T17:52:11.495Z,19.90
2023-02-14T17:55:17.922Z,25.20
2023-02-14T17:58:24.129Z,20.10
2023-02-14T18:01:33.124Z,18.80
2023-02-14T18:04:39.592Z,18.60
2023-02-14T18:07:46.200Z,18.20
2023-02-14T18:10:52.555Z,21.00
2023-02-14T18:17:04.375Z,18.30
2023-02-14T18:23:16.194Z,18.90
2023-02-14T18:29:26.964Z,20.30
2023-02-14T18:35:37.784Z,19.10
2023-02-14T18:41:49.449Z,20.10
2023-02-14T18:44:55.660Z,19.90
2023-02-14T18:48:02.769Z,21.50
2023-02-14T18:51:10.802Z,20.50
2023-02-14T18:54:17.533Z,20.80
2023-02-14T18:57:25.014Z,22.60
2023-02-14T19:00:33.453Z,38.60
2023-02-14T19:03:40.278Z,41.90
2023-02-14T19:06:46.486Z,44.20
2023-02-14T19:09:52.741Z,74.70
2023-02-14T19:12:59.952Z,44.40
2023-02-14T19:16:12.840Z,30.00
2023-02-14T19:19:19.772Z,28.80
2023-02-14T19:22:26.077Z,23.90
2023-02-14T19:28:39.399Z,26.50
2023-02-14T19:31:48.414Z,22.80
2023-02-14T19:34:54.857Z,24.30
2023-02-14T19:38:03.641Z,28.60
2023-02-14T19:41:14.979Z,30.80
2023-02-14T19:44:23.147Z,27.40
2023-02-14T19:47:45.985Z,27.50
2023-02-14T19:50:54.116Z,27.70
2023-02-14T19:54:02.190Z,28.90
2023-02-14T19:57:08.474Z,29.50
2023-02-14T20:00:17.634Z,27.30
2023-02-14T20:03:23.832Z,35.70
2023-02-14T20:06:30.538Z,29.10
2023-02-14T20:09:37.736Z,27.50
2023-02-14T20:12:44.217Z,32.30
2023-02-14T20:15:50.846Z,29.30
2023-02-14T20:18:57.789Z,32.60
2023-02-14T20:22:04.217Z,31.90
2023-02-14T20:25:11.326Z,25.50
2023-02-14T20:28:17.607Z,27.10
2023-02-14T20:34:29.567Z,27.10
2023-02-14T20:37:36.366Z,29.20
2023-02-14T20:40:44.664Z,43.70
2023-02-14T20:43:50.934Z,33.40
2023-02-14T20:46:58.161Z,34.00
2023-02-14T20:50:04.477Z,36.60
2023-02-14T20:56:16.481Z,29.80
2023-02-14T20:59:27.139Z,31.80
2023-02-14T21:02:33.504Z,31.20
2023-02-14T21:05:40.405Z,29.30
2023-02-14T21:08:48.116Z,30.60
2023-02-14T21:11:54.970Z,28.70
2023-02-14T21:15:01.229Z,29.80
2023-02-14T21:18:07.952Z,34.40
2023-02-14T21:21:19.994Z,29.50
2023-02-14T21:24:26.258Z,31.00
2023-02-14T21:27:32.728Z,31.60
2023-02-14T21:30:39.022Z,31.00
2023-02-14T21:36:49.782Z,32.30
2023-02-14T21:39:56.584Z,31.60
2023-02-14T21:43:02.663Z,33.10
2023-02-14T21:46:10.878Z,33.20
2023-02-14T21:49:34.721Z,33.30
2023-02-14T21:52:40.962Z,31.70
2023-02-14T21:55:47.967Z,33.00
2023-02-14T21:58:56.489Z,33.70
2023-02-14T22:02:02.776Z,33.40
2023-02-14T22:08:14.322Z,34.40
2023-02-14T22:11:20.580Z,36.10
2023-02-14T22:17:33.561Z,37.40
2023-02-14T22:20:40.145Z,37.90
2023-02-14T22:23:47.037Z,38.80
2023-02-14T22:26:53.325Z,47.60
2023-02-14T22:33:04.109Z,42.70
2023-02-14T22:36:11.361Z,38.50
2023-02-14T22:39:18.810Z,37.20
2023-02-14T22:42:24.994Z,38.20
2023-02-14T22:45:31.192Z,40.50
2023-02-14T22:48:38.598Z,38.60
2023-02-14T22:51:45.322Z,37.70
2023-02-14T22:54:52.956Z,35.70
2023-02-14T22:57:59.353Z,33.80
2023-02-14T23:04:11.091Z,33.50
2023-02-14T23:07:17.805Z,30.40
2023-02-14T23:10:24.108Z,31.70
2023-02-14T23:17:21.471Z,29.90
2023-02-14T23:20:45.964Z,35.90
2023-02-14T23:23:52.196Z,36.10
2023-02-14T23:26:58.806Z,37.40
2023-02-14T23:30:05.711Z,34.80
2023-02-14T23:33:12.078Z,31.60
2023-02-14T23:39:23.302Z,34.10
2023-02-14T23:42:29.642Z,32.60
2023-02-14T23:48:43.108Z,35.30
2023-02-14T23:51:51.248Z,35.70
2023-02-14T23:54:57.685Z,35.60
